sensor_id;sensor_type;location;lat;lon;timestamp;temperature;humidity
306;DHT22;137;48.578;9.180;2022-08-19T00:01:41;21.50;98.20
306;DHT22;137;48.578;9.180;2022-08-19T00:04:10;21.50;98.20
306;DHT22;137;48.578;9.180;2022-08-19T00:06:40;21.40;98.20
306;DHT22;137;48.578;9.180;2022-08-19T00:09:11;21.50;98.20
306;DHT22;137;48.578;9.180;2022-08-19T00:11:40;21.40;98.20
306;DHT22;137;48.578;9.180;2022-08-19T00:14:11;21.30;98.20
306;DHT22;137;48.578;9.180;2022-08-19T00:16:40;21.30;98.20
306;DHT22;137;48.578;9.180;2022-08-19T00:19:08;21.20;98.20
306;DHT22;137;48.578;9.180;2022-08-19T00:21:35;21.10;98.20
306;DHT22;137;48.578;9.180;2022-08-19T00:24:04;21.00;98.20
306;DHT22;137;48.578;9.180;2022-08-19T00:26:32;20.90;98.20
306;DHT22;137;48.578;9.180;2022-08-19T00:28:59;21.00;98.20
306;DHT22;137;48.578;9.180;2022-08-19T00:31:27;21.00;98.20
306;DHT22;137;48.578;9.180;2022-08-19T00:33:54;21.00;98.20
306;DHT22;137;48.578;9.180;2022-08-19T00:36:21;20.90;98.20
306;DHT22;137;48.578;9.180;2022-08-19T00:38:48;20.90;98.20
306;DHT22;137;48.578;9.180;2022-08-19T00:41:19;20.90;98.20
306;DHT22;137;48.578;9.180;2022-08-19T00:43:59;20.90;98.20
306;DHT22;137;48.578;9.180;2022-08-19T00:46:26;20.90;98.20
306;DHT22;137;48.578;9.180;2022-08-19T00:48:54;20.90;98.20
306;DHT22;137;48.578;9.180;2022-08-19T00:51:21;20.90;98.20
306;DHT22;137;48.578;9.180;2022-08-19T00:53:52;20.90;98.20
306;DHT22;137;48.578;9.180;2022-08-19T00:56:20;20.80;98.20
306;DHT22;137;48.578;9.180;2022-08-19T00:58:47;20.70;98.20
306;DHT22;137;48.578;9.180;2022-08-19T01:01:16;20.70;98.20
306;DHT22;137;48.578;9.180;2022-08-19T01:03:43;20.60;98.20
306;DHT22;137;48.578;9.180;2022-08-19T01:06:09;20.60;98.20
306;DHT22;137;48.578;9.180;2022-08-19T01:08:36;20.50;98.20
306;DHT22;137;48.578;9.180;2022-08-19T01:11:03;20.50;98.20
306;DHT22;137;48.578;9.180;2022-08-19T01:13:33;20.50;98.20
306;DHT22;137;48.578;9.180;2022-08-19T01:16:05;20.50;98.20
306;DHT22;137;48.578;9.180;2022-08-19T01:18:38;20.50;98.20
306;DHT22;137;48.578;9.180;2022-08-19T01:21:10;20.50;98.20
306;DHT22;137;48.578;9.180;2022-08-19T01:23:43;20.40;98.20
306;DHT22;137;48.578;9.180;2022-08-19T01:26:11;20.40;98.20
306;DHT22;137;48.578;9.180;2022-08-19T01:28:40;20.40;98.20
306;DHT22;137;48.578;9.180;2022-08-19T01:31:12;20.30;98.20
306;DHT22;137;48.578;9.180;2022-08-19T01:33:39;20.30;98.20
306;DHT22;137;48.578;9.180;2022-08-19T01:36:08;20.30;98.20
306;DHT22;137;48.578;9.180;2022-08-19T01:38:39;20.30;98.20
306;DHT22;137;48.578;9.180;2022-08-19T01:41:08;20.20;98.20
306;DHT22;137;48.578;9.180;2022-08-19T01:43:36;20.20;98.20
306;DHT22;137;48.578;9.180;2022-08-19T01:46:03;20.20;98.20
306;DHT22;137;48.578;9.180;2022-08-19T01:48:34;20.20;98.20
306;DHT22;137;48.578;9.180;2022-08-19T01:51:01;20.10;98.20
306;DHT22;137;48.578;9.180;2022-08-19T01:53:28;20.10;98.20
306;DHT22;137;48.578;9.180;2022-08-19T01:55:55;20.10;98.20
306;DHT22;137;48.578;9.180;2022-08-19T01:58:27;20.10;98.20
306;DHT22;137;48.578;9.180;2022-08-19T02:00:56;20.00;98.20
306;DHT22;137;48.578;9.180;2022-08-19T02:03:23;20.00;98.20
306;DHT22;137;48.578;9.180;2022-08-19T02:05:54;19.90;98.20
306;DHT22;137;48.578;9.180;2022-08-19T02:08:22;19.90;98.20
306;DHT22;137;48.578;9.180;2022-08-19T02:10:49;19.90;98.20
306;DHT22;137;48.578;9.180;2022-08-19T02:13:16;19.90;98.20
306;DHT22;137;48.578;9.180;2022-08-19T02:15:44;19.80;98.20
306;DHT22;137;48.578;9.180;2022-08-19T02:18:12;19.80;98.20
306;DHT22;137;48.578;9.180;2022-08-19T02:20:40;19.90;98.20
306;DHT22;137;48.578;9.180;2022-08-19T02:23:08;19.90;98.20
306;DHT22;137;48.578;9.180;2022-08-19T02:25:35;19.90;98.20
306;DHT22;137;48.578;9.180;2022-08-19T02:28:02;19.90;98.20
306;DHT22;137;48.578;9.180;2022-08-19T02:30:30;19.90;98.20
306;DHT22;137;48.578;9.180;2022-08-19T02:32:58;19.90;98.20
306;DHT22;137;48.578;9.180;2022-08-19T02:35:25;19.90;98.20
306;DHT22;137;48.578;9.180;2022-08-19T02:37:52;19.90;98.20
306;DHT22;137;48.578;9.180;2022-08-19T02:40:37;19.80;98.20
306;DHT22;137;48.578;9.180;2022-08-19T02:43:06;19.80;98.20
306;DHT22;137;48.578;9.180;2022-08-19T02:45:34;19.80;98.20
306;DHT22;137;48.578;9.180;2022-08-19T02:48:03;19.80;98.20
306;DHT22;137;48.578;9.180;2022-08-19T02:50:30;19.70;98.20
306;DHT22;137;48.578;9.180;2022-08-19T02:52:57;19.60;98.20
306;DHT22;137;48.578;9.180;2022-08-19T02:55:24;19.50;98.20
306;DHT22;137;48.578;9.180;2022-08-19T02:57:51;19.50;98.20
306;DHT22;137;48.578;9.180;2022-08-19T03:00:18;19.50;98.20
306;DHT22;137;48.578;9.180;2022-08-19T03:02:45;19.40;98.20
306;DHT22;137;48.578;9.180;2022-08-19T03:05:13;19.50;98.20
306;DHT22;137;48.578;9.180;2022-08-19T03:07:40;19.50;98.20
306;DHT22;137;48.578;9.180;2022-08-19T03:10:07;19.60;98.20
306;DHT22;137;48.578;9.180;2022-08-19T03:12:36;19.60;98.20
306;DHT22;137;48.578;9.180;2022-08-19T03:15:04;19.60;98.20
306;DHT22;137;48.578;9.180;2022-08-19T03:17:31;19.60;98.20
306;DHT22;137;48.578;9.180;2022-08-19T03:19:58;19.70;98.20
306;DHT22;137;48.578;9.180;2022-08-19T03:22:27;19.70;98.20
306;DHT22;137;48.578;9.180;2022-08-19T03:24:55;19.70;98.20
306;DHT22;137;48.578;9.180;2022-08-19T03:27:22;19.60;98.20
306;DHT22;137;48.578;9.180;2022-08-19T03:29:49;19.60;98.20
306;DHT22;137;48.578;9.180;2022-08-19T03:32:16;19.60;98.20
306;DHT22;137;48.578;9.180;2022-08-19T03:34:42;19.70;98.20
306;DHT22;137;48.578;9.180;2022-08-19T03:37:10;19.70;98.20
306;DHT22;137;48.578;9.180;2022-08-19T03:39:40;19.70;98.20
306;DHT22;137;48.578;9.180;2022-08-19T03:42:08;19.60;98.20
306;DHT22;137;48.578;9.180;2022-08-19T03:44:35;19.70;98.20
306;DHT22;137;48.578;9.180;2022-08-19T03:47:03;19.70;98.20
306;DHT22;137;48.578;9.180;2022-08-19T03:49:32;19.70;98.20
306;DHT22;137;48.578;9.180;2022-08-19T03:52:01;19.70;98.20
306;DHT22;137;48.578;9.180;2022-08-19T03:54:30;19.70;98.20
306;DHT22;137;48.578;9.180;2022-08-19T03:56:58;19.80;98.20
306;DHT22;137;48.578;9.180;2022-08-19T03:59:27;19.80;98.20
306;DHT22;137;48.578;9.180;2022-08-19T04:01:55;19.90;98.20
306;DHT22;137;48.578;9.180;2022-08-19T04:04:22;19.90;98.20
306;DHT22;137;48.578;9.180;2022-08-19T04:06:50;19.80;98.20
306;DHT22;137;48.578;9.180;2022-08-19T04:09:17;19.80;98.20
306;DHT22;137;48.578;9.180;2022-08-19T04:11:46;19.70;98.20
306;DHT22;137;48.578;9.180;2022-08-19T04:14:17;19.60;98.20
306;DHT22;137;48.578;9.180;2022-08-19T04:16:44;19.60;98.20
306;DHT22;137;48.578;9.180;2022-08-19T04:19:13;19.60;98.20
306;DHT22;137;48.578;9.180;2022-08-19T04:21:43;19.60;98.20
306;DHT22;137;48.578;9.180;2022-08-19T04:24:11;19.60;98.20
306;DHT22;137;48.578;9.180;2022-08-19T04:26:39;19.60;98.20
306;DHT22;137;48.578;9.180;2022-08-19T04:29:07;19.60;98.20
306;DHT22;137;48.578;9.180;2022-08-19T04:31:36;19.60;98.20
306;DHT22;137;48.578;9.180;2022-08-19T04:34:04;19.60;98.20
306;DHT22;137;48.578;9.180;2022-08-19T04:36:36;19.60;98.20
306;DHT22;137;48.578;9.180;2022-08-19T04:39:06;19.60;98.20
306;DHT22;137;48.578;9.180;2022-08-19T04:41:34;19.70;98.20
306;DHT22;137;48.578;9.180;2022-08-19T04:44:18;19.60;98.20
306;DHT22;137;48.578;9.180;2022-08-19T04:46:48;19.60;98.20
306;DHT22;137;48.578;9.180;2022-08-19T04:49:16;19.60;98.20
306;DHT22;137;48.578;9.180;2022-08-19T04:51:45;19.60;98.20
306;DHT22;137;48.578;9.180;2022-08-19T04:54:13;19.60;98.20
306;DHT22;137;48.578;9.180;2022-08-19T04:56:40;19.70;98.20
306;DHT22;137;48.578;9.180;2022-08-19T04:59:07;19.70;98.20
306;DHT22;137;48.578;9.180;2022-08-19T05:01:34;19.70;98.20
306;DHT22;137;48.578;9.180;2022-08-19T05:04:04;19.70;98.20
306;DHT22;137;48.578;9.180;2022-08-19T05:06:32;19.80;98.20
306;DHT22;137;48.578;9.180;2022-08-19T05:09:00;19.80;98.20
306;DHT22;137;48.578;9.180;2022-08-19T05:11:28;19.80;98.20
306;DHT22;137;48.578;9.180;2022-08-19T05:13:56;19.80;98.20
306;DHT22;137;48.578;9.180;2022-08-19T05:16:25;19.90;98.20
306;DHT22;137;48.578;9.180;2022-08-19T05:18:52;20.00;98.20
306;DHT22;137;48.578;9.180;2022-08-19T05:21:40;20.00;98.20
306;DHT22;137;48.578;9.180;2022-08-19T05:24:26;20.10;98.20
306;DHT22;137;48.578;9.180;2022-08-19T05:26:54;20.00;98.20
306;DHT22;137;48.578;9.180;2022-08-19T05:29:25;20.00;98.20
306;DHT22;137;48.578;9.180;2022-08-19T05:31:53;20.00;98.20
306;DHT22;137;48.578;9.180;2022-08-19T05:34:22;20.10;98.20
306;DHT22;137;48.578;9.180;2022-08-19T05:36:56;20.00;98.20
306;DHT22;137;48.578;9.180;2022-08-19T05:39:25;20.00;98.20
306;DHT22;137;48.578;9.180;2022-08-19T05:41:55;20.00;98.20
306;DHT22;137;48.578;9.180;2022-08-19T05:44:24;19.90;98.20
306;DHT22;137;48.578;9.180;2022-08-19T05:46:51;19.90;98.20
306;DHT22;137;48.578;9.180;2022-08-19T05:49:21;20.00;98.20
306;DHT22;137;48.578;9.180;2022-08-19T05:51:48;20.00;98.20
306;DHT22;137;48.578;9.180;2022-08-19T05:54:17;20.00;98.20
306;DHT22;137;48.578;9.180;2022-08-19T05:56:45;20.00;98.20
306;DHT22;137;48.578;9.180;2022-08-19T05:59:14;19.90;98.20
306;DHT22;137;48.578;9.180;2022-08-19T06:01:44;20.00;98.20
306;DHT22;137;48.578;9.180;2022-08-19T06:04:11;20.10;98.20
306;DHT22;137;48.578;9.180;2022-08-19T06:06:39;20.10;98.20
306;DHT22;137;48.578;9.180;2022-08-19T06:09:07;20.10;98.20
306;DHT22;137;48.578;9.180;2022-08-19T06:11:40;20.10;98.20
306;DHT22;137;48.578;9.180;2022-08-19T06:14:11;20.20;98.20
306;DHT22;137;48.578;9.180;2022-08-19T06:16:40;20.30;98.20
306;DHT22;137;48.578;9.180;2022-08-19T06:19:10;20.40;98.20
306;DHT22;137;48.578;9.180;2022-08-19T06:21:38;20.40;98.20
306;DHT22;137;48.578;9.180;2022-08-19T06:24:07;20.40;98.20
306;DHT22;137;48.578;9.180;2022-08-19T06:26:37;20.50;98.20
306;DHT22;137;48.578;9.180;2022-08-19T06:29:06;20.50;98.20
306;DHT22;137;48.578;9.180;2022-08-19T06:31:35;20.60;98.20
306;DHT22;137;48.578;9.180;2022-08-19T06:34:03;20.60;98.20
306;DHT22;137;48.578;9.180;2022-08-19T06:36:34;20.60;98.20
306;DHT22;137;48.578;9.180;2022-08-19T06:39:03;20.60;98.20
306;DHT22;137;48.578;9.180;2022-08-19T06:41:31;20.70;98.20
306;DHT22;137;48.578;9.180;2022-08-19T06:44:02;20.80;98.20
306;DHT22;137;48.578;9.180;2022-08-19T06:46:29;20.80;98.20
306;DHT22;137;48.578;9.180;2022-08-19T06:48:56;20.80;98.20
306;DHT22;137;48.578;9.180;2022-08-19T06:51:23;20.80;98.20
306;DHT22;137;48.578;9.180;2022-08-19T06:53:52;20.80;98.20
306;DHT22;137;48.578;9.180;2022-08-19T06:56:22;20.80;98.20
306;DHT22;137;48.578;9.180;2022-08-19T06:58:50;20.80;98.20
306;DHT22;137;48.578;9.180;2022-08-19T07:01:19;20.80;98.20
306;DHT22;137;48.578;9.180;2022-08-19T07:03:46;20.80;98.20
306;DHT22;137;48.578;9.180;2022-08-19T07:06:16;20.80;98.20
306;DHT22;137;48.578;9.180;2022-08-19T07:08:46;20.80;98.20
306;DHT22;137;48.578;9.180;2022-08-19T07:11:15;20.80;98.20
306;DHT22;137;48.578;9.180;2022-08-19T07:13:44;20.70;98.20
306;DHT22;137;48.578;9.180;2022-08-19T07:16:13;20.70;98.20
306;DHT22;137;48.578;9.180;2022-08-19T07:18:42;20.60;98.20
306;DHT22;137;48.578;9.180;2022-08-19T07:21:11;20.50;98.20
306;DHT22;137;48.578;9.180;2022-08-19T07:23:38;20.50;98.20
306;DHT22;137;48.578;9.180;2022-08-19T07:26:06;20.50;98.20
306;DHT22;137;48.578;9.180;2022-08-19T07:28:33;20.50;98.20
306;DHT22;137;48.578;9.180;2022-08-19T07:31:05;20.50;98.20
306;DHT22;137;48.578;9.180;2022-08-19T07:33:32;20.60;98.20
306;DHT22;137;48.578;9.180;2022-08-19T07:36:04;20.60;98.20
306;DHT22;137;48.578;9.180;2022-08-19T07:38:32;20.50;98.20
306;DHT22;137;48.578;9.180;2022-08-19T07:40:59;20.50;98.20
306;DHT22;137;48.578;9.180;2022-08-19T07:43:26;20.60;98.20
306;DHT22;137;48.578;9.180;2022-08-19T07:45:54;20.60;98.20
306;DHT22;137;48.578;9.180;2022-08-19T07:48:23;20.60;98.20
306;DHT22;137;48.578;9.180;2022-08-19T07:50:52;20.60;98.20
306;DHT22;137;48.578;9.180;2022-08-19T07:53:21;20.60;98.20
306;DHT22;137;48.578;9.180;2022-08-19T07:55:48;20.70;98.20
306;DHT22;137;48.578;9.180;2022-08-19T07:58:16;20.60;98.20
306;DHT22;137;48.578;9.180;2022-08-19T08:00:44;20.60;98.20
306;DHT22;137;48.578;9.180;2022-08-19T08:03:12;20.50;98.20
306;DHT22;137;48.578;9.180;2022-08-19T08:05:40;20.40;98.20
306;DHT22;137;48.578;9.180;2022-08-19T08:08:26;20.40;98.20
306;DHT22;137;48.578;9.180;2022-08-19T08:11:10;20.30;98.20
306;DHT22;137;48.578;9.180;2022-08-19T08:13:37;20.40;98.20
306;DHT22;137;48.578;9.180;2022-08-19T08:16:06;20.50;98.20
306;DHT22;137;48.578;9.180;2022-08-19T08:18:34;20.50;98.20
306;DHT22;137;48.578;9.180;2022-08-19T08:21:07;20.50;98.20
306;DHT22;137;48.578;9.180;2022-08-19T08:23:35;20.40;98.20
306;DHT22;137;48.578;9.180;2022-08-19T08:26:02;20.40;98.20
306;DHT22;137;48.578;9.180;2022-08-19T08:28:30;20.40;98.20
306;DHT22;137;48.578;9.180;2022-08-19T08:30:57;20.40;98.20
306;DHT22;137;48.578;9.180;2022-08-19T08:33:27;20.30;98.20
306;DHT22;137;48.578;9.180;2022-08-19T08:35:53;20.20;98.20
306;DHT22;137;48.578;9.180;2022-08-19T08:38:20;20.20;98.20
306;DHT22;137;48.578;9.180;2022-08-19T08:40:51;20.20;98.20
306;DHT22;137;48.578;9.180;2022-08-19T08:43:23;20.20;98.20
306;DHT22;137;48.578;9.180;2022-08-19T08:45:56;20.20;98.20
306;DHT22;137;48.578;9.180;2022-08-19T08:48:34;20.30;98.20
306;DHT22;137;48.578;9.180;2022-08-19T08:51:03;20.30;98.20
306;DHT22;137;48.578;9.180;2022-08-19T08:53:32;20.30;98.20
306;DHT22;137;48.578;9.180;2022-08-19T08:56:04;20.40;98.20
306;DHT22;137;48.578;9.180;2022-08-19T08:58:39;20.50;98.20
306;DHT22;137;48.578;9.180;2022-08-19T09:01:10;20.60;98.20
306;DHT22;137;48.578;9.180;2022-08-19T09:03:39;20.70;98.20
306;DHT22;137;48.578;9.180;2022-08-19T09:06:12;20.60;98.20
306;DHT22;137;48.578;9.180;2022-08-19T09:08:47;20.60;98.20
306;DHT22;137;48.578;9.180;2022-08-19T09:11:21;20.70;98.20
306;DHT22;137;48.578;9.180;2022-08-19T09:14:01;20.60;98.20
306;DHT22;137;48.578;9.180;2022-08-19T09:16:30;20.60;98.20
306;DHT22;137;48.578;9.180;2022-08-19T09:19:00;20.60;98.20
306;DHT22;137;48.578;9.180;2022-08-19T09:21:28;20.70;98.20
306;DHT22;137;48.578;9.180;2022-08-19T09:23:55;20.70;98.20
306;DHT22;137;48.578;9.180;2022-08-19T09:26:24;20.80;98.20
306;DHT22;137;48.578;9.180;2022-08-19T09:28:52;20.80;98.20
306;DHT22;137;48.578;9.180;2022-08-19T09:31:21;20.80;98.20
306;DHT22;137;48.578;9.180;2022-08-19T09:33:48;20.80;98.20
306;DHT22;137;48.578;9.180;2022-08-19T09:36:17;20.70;98.20
306;DHT22;137;48.578;9.180;2022-08-19T09:38:45;20.70;98.20
306;DHT22;137;48.578;9.180;2022-08-19T09:41:14;20.60;98.20
306;DHT22;137;48.578;9.180;2022-08-19T09:43:46;20.60;98.20
306;DHT22;137;48.578;9.180;2022-08-19T09:46:13;20.60;98.20
306;DHT22;137;48.578;9.180;2022-08-19T09:48:43;20.70;98.20
306;DHT22;137;48.578;9.180;2022-08-19T09:51:14;20.80;98.20
306;DHT22;137;48.578;9.180;2022-08-19T09:53:43;20.80;98.20
306;DHT22;137;48.578;9.180;2022-08-19T09:56:11;20.90;98.20
306;DHT22;137;48.578;9.180;2022-08-19T09:58:40;20.90;98.20
306;DHT22;137;48.578;9.180;2022-08-19T10:01:14;20.90;98.20
306;DHT22;137;48.578;9.180;2022-08-19T10:03:41;20.90;98.20
306;DHT22;137;48.578;9.180;2022-08-19T10:06:08;20.90;98.20
306;DHT22;137;48.578;9.180;2022-08-19T10:08:36;20.80;98.20
306;DHT22;137;48.578;9.180;2022-08-19T10:11:05;20.80;98.20
306;DHT22;137;48.578;9.180;2022-08-19T10:13:33;20.70;98.20
306;DHT22;137;48.578;9.180;2022-08-19T10:16:04;20.70;98.20
306;DHT22;137;48.578;9.180;2022-08-19T10:18:33;20.70;98.20
306;DHT22;137;48.578;9.180;2022-08-19T10:21:06;20.70;98.20
306;DHT22;137;48.578;9.180;2022-08-19T10:23:36;20.60;98.20
306;DHT22;137;48.578;9.180;2022-08-19T10:26:03;20.60;98.20
306;DHT22;137;48.578;9.180;2022-08-19T10:28:31;20.70;98.20
306;DHT22;137;48.578;9.180;2022-08-19T10:31:02;20.60;98.20
306;DHT22;137;48.578;9.180;2022-08-19T10:33:29;20.70;98.20
306;DHT22;137;48.578;9.180;2022-08-19T10:36:01;20.70;98.20
306;DHT22;137;48.578;9.180;2022-08-19T10:38:28;20.70;98.20
306;DHT22;137;48.578;9.180;2022-08-19T10:40:55;20.80;98.20
306;DHT22;137;48.578;9.180;2022-08-19T10:43:22;20.70;98.20
306;DHT22;137;48.578;9.180;2022-08-19T10:45:52;20.70;98.20
306;DHT22;137;48.578;9.180;2022-08-19T10:48:21;20.60;98.20
306;DHT22;137;48.578;9.180;2022-08-19T10:50:48;20.70;98.20
306;DHT22;137;48.578;9.180;2022-08-19T10:53:34;20.70;98.20
306;DHT22;137;48.578;9.180;2022-08-19T10:56:01;20.70;98.20
306;DHT22;137;48.578;9.180;2022-08-19T10:58:45;20.70;98.20
306;DHT22;137;48.578;9.180;2022-08-19T11:01:12;20.80;98.20
306;DHT22;137;48.578;9.180;2022-08-19T11:03:39;20.80;98.20
306;DHT22;137;48.578;9.180;2022-08-19T11:06:07;20.80;98.20
306;DHT22;137;48.578;9.180;2022-08-19T11:08:36;20.80;98.20
306;DHT22;137;48.578;9.180;2022-08-19T11:11:05;20.90;98.20
306;DHT22;137;48.578;9.180;2022-08-19T11:13:34;21.00;98.20
306;DHT22;137;48.578;9.180;2022-08-19T11:16:05;21.00;98.20
306;DHT22;137;48.578;9.180;2022-08-19T11:18:34;21.00;98.20
306;DHT22;137;48.578;9.180;2022-08-19T11:21:10;21.00;98.20
306;DHT22;137;48.578;9.180;2022-08-19T11:23:39;20.90;98.20
306;DHT22;137;48.578;9.180;2022-08-19T11:26:06;20.90;98.20
306;DHT22;137;48.578;9.180;2022-08-19T11:28:33;20.80;98.20
306;DHT22;137;48.578;9.180;2022-08-19T11:31:00;20.90;98.20
306;DHT22;137;48.578;9.180;2022-08-19T11:33:28;21.00;98.20
306;DHT22;137;48.578;9.180;2022-08-19T11:35:57;21.10;98.20
306;DHT22;137;48.578;9.180;2022-08-19T11:38:24;21.10;98.20
306;DHT22;137;48.578;9.180;2022-08-19T11:40:56;21.10;98.20
306;DHT22;137;48.578;9.180;2022-08-19T11:43:23;20.90;98.20
306;DHT22;137;48.578;9.180;2022-08-19T11:45:52;20.80;98.20
306;DHT22;137;48.578;9.180;2022-08-19T11:48:19;20.80;98.20
306;DHT22;137;48.578;9.180;2022-08-19T11:50:47;20.70;98.20
306;DHT22;137;48.578;9.180;2022-08-19T11:53:15;20.70;98.20
306;DHT22;137;48.578;9.180;2022-08-19T11:55:42;20.60;98.20
306;DHT22;137;48.578;9.180;2022-08-19T11:58:11;20.60;98.20
306;DHT22;137;48.578;9.180;2022-08-19T12:00:39;20.70;98.20
306;DHT22;137;48.578;9.180;2022-08-19T12:03:07;20.70;98.20
306;DHT22;137;48.578;9.180;2022-08-19T12:05:36;20.80;98.20
306;DHT22;137;48.578;9.180;2022-08-19T12:08:03;20.90;98.20
306;DHT22;137;48.578;9.180;2022-08-19T12:10:30;21.00;98.20
306;DHT22;137;48.578;9.180;2022-08-19T12:12:57;21.10;98.20
306;DHT22;137;48.578;9.180;2022-08-19T12:15:25;21.00;98.20
306;DHT22;137;48.578;9.180;2022-08-19T12:17:54;20.90;98.20
306;DHT22;137;48.578;9.180;2022-08-19T12:20:22;20.90;98.20
306;DHT22;137;48.578;9.180;2022-08-19T12:22:50;20.90;98.20
306;DHT22;137;48.578;9.180;2022-08-19T12:25:17;20.80;98.20
306;DHT22;137;48.578;9.180;2022-08-19T12:27:44;20.80;98.20
306;DHT22;137;48.578;9.180;2022-08-19T12:30:12;20.80;98.20
306;DHT22;137;48.578;9.180;2022-08-19T12:32:40;20.80;98.20
306;DHT22;137;48.578;9.180;2022-08-19T12:35:08;21.00;98.20
306;DHT22;137;48.578;9.180;2022-08-19T12:37:37;21.10;98.20
306;DHT22;137;48.578;9.180;2022-08-19T12:40:05;21.10;98.20
306;DHT22;137;48.578;9.180;2022-08-19T12:42:32;21.20;98.20
306;DHT22;137;48.578;9.180;2022-08-19T12:44:58;21.20;98.20
306;DHT22;137;48.578;9.180;2022-08-19T12:47:25;21.30;98.20
306;DHT22;137;48.578;9.180;2022-08-19T12:49:54;21.20;98.20
306;DHT22;137;48.578;9.180;2022-08-19T12:52:22;21.10;98.20
306;DHT22;137;48.578;9.180;2022-08-19T12:54:49;21.10;98.20
306;DHT22;137;48.578;9.180;2022-08-19T12:57:16;21.00;98.20
306;DHT22;137;48.578;9.180;2022-08-19T12:59:43;20.90;98.20
306;DHT22;137;48.578;9.180;2022-08-19T13:02:10;20.90;98.20
306;DHT22;137;48.578;9.180;2022-08-19T13:04:37;21.00;98.20
306;DHT22;137;48.578;9.180;2022-08-19T13:07:07;21.10;98.20
306;DHT22;137;48.578;9.180;2022-08-19T13:09:35;21.10;98.20
306;DHT22;137;48.578;9.180;2022-08-19T13:12:02;21.10;98.20
306;DHT22;137;48.578;9.180;2022-08-19T13:14:33;21.00;98.20
306;DHT22;137;48.578;9.180;2022-08-19T13:17:00;21.00;98.20
306;DHT22;137;48.578;9.180;2022-08-19T13:19:27;21.00;98.20
306;DHT22;137;48.578;9.180;2022-08-19T13:21:55;21.10;98.20
306;DHT22;137;48.578;9.180;2022-08-19T13:24:24;21.00;98.20
306;DHT22;137;48.578;9.180;2022-08-19T13:26:51;20.90;98.20
306;DHT22;137;48.578;9.180;2022-08-19T13:29:18;20.90;98.20
306;DHT22;137;48.578;9.180;2022-08-19T13:32:03;20.80;98.20
306;DHT22;137;48.578;9.180;2022-08-19T13:34:47;20.70;98.20
306;DHT22;137;48.578;9.180;2022-08-19T13:37:14;20.70;98.20
306;DHT22;137;48.578;9.180;2022-08-19T13:39:42;20.70;98.20
306;DHT22;137;48.578;9.180;2022-08-19T13:42:10;20.80;98.20
306;DHT22;137;48.578;9.180;2022-08-19T13:44:38;20.70;98.20
306;DHT22;137;48.578;9.180;2022-08-19T13:47:06;20.70;98.20
306;DHT22;137;48.578;9.180;2022-08-19T13:49:34;20.70;98.20
306;DHT22;137;48.578;9.180;2022-08-19T13:52:02;20.70;98.20
306;DHT22;137;48.578;9.180;2022-08-19T13:54:29;20.80;98.20
306;DHT22;137;48.578;9.180;2022-08-19T13:56:57;20.70;98.20
306;DHT22;137;48.578;9.180;2022-08-19T13:59:24;20.50;98.20
306;DHT22;137;48.578;9.180;2022-08-19T14:01:51;20.60;98.20
306;DHT22;137;48.578;9.180;2022-08-19T14:04:18;20.60;98.20
306;DHT22;137;48.578;9.180;2022-08-19T14:06:45;20.60;98.20
306;DHT22;137;48.578;9.180;2022-08-19T14:09:12;20.60;98.20
306;DHT22;137;48.578;9.180;2022-08-19T14:11:39;20.70;98.20
306;DHT22;137;48.578;9.180;2022-08-19T14:14:07;20.70;98.20
306;DHT22;137;48.578;9.180;2022-08-19T14:16:34;20.80;98.20
306;DHT22;137;48.578;9.180;2022-08-19T14:19:01;20.80;98.20
306;DHT22;137;48.578;9.180;2022-08-19T14:21:27;20.80;98.20
306;DHT22;137;48.578;9.180;2022-08-19T14:23:54;20.70;98.20
306;DHT22;137;48.578;9.180;2022-08-19T14:26:22;20.70;98.20
306;DHT22;137;48.578;9.180;2022-08-19T14:28:50;20.80;98.20
306;DHT22;137;48.578;9.180;2022-08-19T14:31:19;20.70;98.20
306;DHT22;137;48.578;9.180;2022-08-19T14:33:49;20.80;98.20
306;DHT22;137;48.578;9.180;2022-08-19T14:36:17;20.80;98.20
306;DHT22;137;48.578;9.180;2022-08-19T14:38:45;20.70;98.20
306;DHT22;137;48.578;9.180;2022-08-19T14:41:14;20.70;98.20
306;DHT22;137;48.578;9.180;2022-08-19T14:43:43;20.70;98.20
306;DHT22;137;48.578;9.180;2022-08-19T14:46:11;20.70;98.20
306;DHT22;137;48.578;9.180;2022-08-19T14:48:40;20.60;98.20
306;DHT22;137;48.578;9.180;2022-08-19T14:51:07;20.70;98.20
306;DHT22;137;48.578;9.180;2022-08-19T14:53:34;20.70;98.20
306;DHT22;137;48.578;9.180;2022-08-19T14:56:01;20.70;98.20
306;DHT22;137;48.578;9.180;2022-08-19T14:58:28;20.80;98.20
306;DHT22;137;48.578;9.180;2022-08-19T15:00:57;20.80;98.20
306;DHT22;137;48.578;9.180;2022-08-19T15:03:24;20.90;98.20
306;DHT22;137;48.578;9.180;2022-08-19T15:05:52;21.00;98.20
306;DHT22;137;48.578;9.180;2022-08-19T15:08:19;21.10;98.20
306;DHT22;137;48.578;9.180;2022-08-19T15:10:50;21.20;98.20
306;DHT22;137;48.578;9.180;2022-08-19T15:13:17;21.40;98.20
306;DHT22;137;48.578;9.180;2022-08-19T15:15:44;21.40;98.20
306;DHT22;137;48.578;9.180;2022-08-19T15:18:12;21.60;98.20
306;DHT22;137;48.578;9.180;2022-08-19T15:20:39;21.80;98.20
306;DHT22;137;48.578;9.180;2022-08-19T15:23:08;21.70;98.20
306;DHT22;137;48.578;9.180;2022-08-19T15:25:36;21.80;98.20
306;DHT22;137;48.578;9.180;2022-08-19T15:28:03;21.90;98.20
306;DHT22;137;48.578;9.180;2022-08-19T15:30:30;22.00;98.20
306;DHT22;137;48.578;9.180;2022-08-19T15:32:58;22.00;98.20
306;DHT22;137;48.578;9.180;2022-08-19T15:35:28;22.10;98.20
306;DHT22;137;48.578;9.180;2022-08-19T15:37:55;22.00;98.20
306;DHT22;137;48.578;9.180;2022-08-19T15:40:25;22.00;98.20
306;DHT22;137;48.578;9.180;2022-08-19T15:42:52;22.10;98.20
306;DHT22;137;48.578;9.180;2022-08-19T15:45:20;22.20;98.20
306;DHT22;137;48.578;9.180;2022-08-19T15:47:48;22.30;98.20
306;DHT22;137;48.578;9.180;2022-08-19T15:50:17;22.40;98.20
306;DHT22;137;48.578;9.180;2022-08-19T15:52:47;22.40;98.20
306;DHT22;137;48.578;9.180;2022-08-19T15:55:15;22.60;98.20
306;DHT22;137;48.578;9.180;2022-08-19T15:57:43;22.60;98.20
306;DHT22;137;48.578;9.180;2022-08-19T16:00:27;22.70;98.20
306;DHT22;137;48.578;9.180;2022-08-19T16:03:13;22.70;98.20
306;DHT22;137;48.578;9.180;2022-08-19T16:05:58;22.70;98.20
306;DHT22;137;48.578;9.180;2022-08-19T16:08:42;22.90;98.20
306;DHT22;137;48.578;9.180;2022-08-19T16:11:10;23.10;98.20
306;DHT22;137;48.578;9.180;2022-08-19T16:13:39;23.00;98.20
306;DHT22;137;48.578;9.180;2022-08-19T16:16:07;22.90;98.20
306;DHT22;137;48.578;9.180;2022-08-19T16:18:34;23.00;98.20
306;DHT22;137;48.578;9.180;2022-08-19T16:21:03;23.10;98.20
306;DHT22;137;48.578;9.180;2022-08-19T16:23:31;23.20;98.20
306;DHT22;137;48.578;9.180;2022-08-19T16:25:58;23.20;98.20
306;DHT22;137;48.578;9.180;2022-08-19T16:28:24;23.10;98.20
306;DHT22;137;48.578;9.180;2022-08-19T16:30:53;23.00;98.20
306;DHT22;137;48.578;9.180;2022-08-19T16:33:20;23.00;98.20
306;DHT22;137;48.578;9.180;2022-08-19T16:35:47;22.90;98.20
306;DHT22;137;48.578;9.180;2022-08-19T16:38:14;23.00;98.20
306;DHT22;137;48.578;9.180;2022-08-19T16:40:41;22.90;98.20
306;DHT22;137;48.578;9.180;2022-08-19T16:43:08;22.90;98.20
306;DHT22;137;48.578;9.180;2022-08-19T16:45:35;22.90;98.20